.
WxDataArchive / Data Records for 2012-10-19
2012-10-18 October 2012 2012-10-20

Data Records for Friday, 19 October 2012

Time	Temp	Chill	HIndex	Humid	Dewpt	 Wind 	HiWind	WindDir	Rain 	Barom 
-----	----	-----	------	-----	-----	------	------	-------	-----	----- 
00:00	46.7	46.7	46.7	74	38.9	0	1	270	0.00	29.630 
00:05	46.5	46.5	46.5	74	38.7	0	1	---	0.00	29.630 
00:10	46.4	46.4	46.4	74	38.6	0	0	---	0.00	29.630 
00:15	46.4	46.4	46.4	74	38.6	0	0	---	0.00	29.631 
00:20	46.4	46.4	46.4	75	38.9	0	1	270	0.00	29.631 
00:25	46.7	46.7	46.7	73	38.5	0	1	270	0.00	29.631 
00:30	47.0	47.0	47.0	72	38.4	0	0	---	0.00	29.625 
00:35	47.1	47.1	47.1	71	38.2	0	0	---	0.00	29.625 
00:40	47.1	47.1	47.1	71	38.2	0	0	---	0.00	29.625 
00:45	47.1	47.1	47.1	71	38.2	0	0	---	0.00	29.617 
00:50	47.1	47.1	47.1	71	38.2	0	0	---	0.00	29.617 
00:55	47.0	47.0	47.0	71	38.1	0	0	---	0.00	29.617 
01:00	47.0	47.0	47.0	72	38.4	0	0	---	0.00	29.607 
01:05	46.8	46.8	46.8	73	38.6	0	0	---	0.00	29.607 
01:10	46.8	46.8	46.8	73	38.6	0	1	270	0.00	29.607 
01:15	46.7	46.7	46.7	74	38.9	0	0	---	0.00	29.596 
01:20	46.5	46.5	46.5	75	39.0	0	0	---	0.00	29.596 
01:25	46.5	46.5	46.5	75	39.0	0	0	---	0.00	29.596 
01:30	46.4	46.4	46.4	75	38.9	0	0	---	0.00	29.600 
01:35	46.4	46.4	46.4	76	39.3	0	0	---	0.00	29.600 
01:40	46.2	46.2	46.2	77	39.4	0	0	---	0.00	29.600 
01:45	46.2	46.2	46.2	77	39.4	0	0	---	0.00	29.593 
01:50	46.2	46.2	46.2	77	39.4	0	0	---	0.00	29.593 
01:55	46.2	46.2	46.2	78	39.7	0	1	270	0.00	29.593 
02:00	46.2	46.2	46.2	78	39.7	0	0	---	0.00	29.587 
02:05	46.1	46.1	46.1	78	39.6	0	0	---	0.00	29.587 
02:10	46.1	46.1	46.1	78	39.6	0	0	---	0.00	29.587 
02:15	46.0	46.0	46.0	79	39.9	0	0	---	0.00	29.593 
02:20	45.8	45.8	45.8	79	39.7	0	0	---	0.00	29.593 
02:25	45.8	45.8	45.8	80	40.0	0	0	---	0.00	29.593 
02:30	45.7	45.7	45.7	80	39.9	0	0	---	0.00	29.581 
02:35	45.5	45.5	45.5	80	39.7	0	0	---	0.00	29.581 
02:40	45.4	45.4	45.4	80	39.6	0	0	---	0.00	29.581 
02:45	45.4	45.4	45.4	81	39.9	0	0	---	0.00	29.577 
02:50	45.2	45.2	45.2	81	39.7	0	0	---	0.00	29.577 
02:55	45.2	45.2	45.2	81	39.7	0	0	---	0.00	29.577 
03:00	45.2	45.2	45.2	82	40.0	0	0	---	0.00	29.576 
03:05	45.2	45.2	45.2	82	40.0	0	0	---	0.00	29.576 
03:10	45.2	45.2	45.2	83	40.3	0	1	270	0.00	29.576 
03:15	45.2	45.2	45.2	83	40.3	0	0	---	0.00	29.573 
03:20	45.1	45.1	45.1	83	40.3	0	0	---	0.00	29.573 
03:25	45.1	45.1	45.1	82	39.9	0	1	270	0.00	29.573 
03:30	45.2	45.2	45.2	81	39.7	0	1	270	0.00	29.561 
03:35	45.2	45.2	45.2	81	39.7	0	1	270	0.00	29.561 
03:40	45.2	45.2	45.2	81	39.7	0	1	270	0.00	29.561 
03:45	45.2	45.2	45.2	81	39.7	0	1	270	0.00	29.556 
03:50	45.2	45.2	45.2	81	39.7	0	1	270	0.00	29.556 
03:55	45.2	45.2	45.2	81	39.7	0	1	270	0.00	29.556 
04:00	45.2	45.2	45.2	81	39.7	0	1	270	0.00	29.549 
04:05	45.2	45.2	45.2	81	39.7	0	1	270	0.00	29.549 
04:10	45.2	45.2	45.2	81	39.7	0	1	270	0.00	29.549 
04:15	45.2	45.2	45.2	81	39.7	0	1	270	0.00	29.545 
04:20	45.2	45.2	45.2	81	39.7	0	0	---	0.00	29.545 
04:25	45.2	45.2	45.2	81	39.7	0	0	---	0.00	29.545 
04:30	45.1	45.1	45.1	81	39.6	0	0	---	0.00	29.544 
04:35	44.9	44.9	44.9	81	39.4	0	0	---	0.00	29.544 
04:40	44.6	44.6	44.6	81	39.1	0	0	---	0.00	29.544 
04:45	44.5	44.5	44.5	81	39.0	0	0	---	0.00	29.544 
04:50	44.3	44.3	44.3	81	38.8	0	0	---	0.00	29.544 
04:55	44.2	44.2	44.2	81	38.7	0	0	---	0.00	29.544 
05:00	44.2	44.2	44.2	82	39.1	0	0	---	0.00	29.544 
05:05	44.2	44.2	44.2	82	39.1	0	0	---	0.00	29.544 
05:10	44.2	44.2	44.2	83	39.4	0	0	---	0.00	29.544 
05:15	44.2	44.2	44.2	83	39.4	0	0	---	0.00	29.541 
05:20	44.2	44.2	44.2	84	39.7	0	0	---	0.00	29.541 
05:25	44.3	44.3	44.3	85	40.1	0	0	---	0.00	29.541 
05:30	44.3	44.3	44.3	85	40.1	0	0	---	0.00	29.540 
05:35	44.5	44.5	44.5	85	40.3	0	0	---	0.00	29.540 
05:40	44.6	44.6	44.6	85	40.4	0	0	---	0.00	29.540 
05:45	44.6	44.6	44.6	85	40.4	0	1	270	0.00	29.539 
05:50	44.8	44.8	44.8	85	40.6	0	0	---	0.00	29.539 
05:55	44.8	44.8	44.8	85	40.6	0	1	270	0.00	29.539 
06:00	44.9	44.9	44.9	85	40.7	0	0	---	0.00	29.536 
06:05	44.9	44.9	44.9	85	40.7	0	0	---	0.00	29.536 
06:10	44.9	44.9	44.9	85	40.7	0	0	---	0.00	29.536 
06:15	44.9	44.9	44.9	85	40.7	0	0	---	0.00	29.536 
06:20	44.9	44.9	44.9	85	40.7	0	1	270	0.00	29.536 
06:25	44.9	44.9	44.9	85	40.7	0	0	---	0.00	29.536 
06:30	44.9	44.9	44.9	85	40.7	0	0	---	0.00	29.538 
06:35	44.9	44.9	44.9	85	40.7	0	0	---	0.00	29.538 
06:40	45.1	45.1	45.1	85	40.9	0	1	270	0.00	29.538 
06:45	45.1	45.1	45.1	85	40.9	0	1	270	0.00	29.542 
06:50	45.1	45.1	45.1	85	40.9	0	1	270	0.00	29.542 
06:55	45.1	45.1	45.1	85	40.9	0	1	270	0.00	29.542 
07:00	45.2	45.2	45.2	85	41.0	0	3	270	0.00	29.537 
07:05	45.4	45.4	45.4	85	41.2	0	2	270	0.00	29.537 
07:10	45.4	45.4	45.4	85	41.2	0	1	270	0.00	29.537 
07:15	45.5	45.5	45.5	85	41.3	0	3	270	0.00	29.540 
07:20	45.5	45.5	45.5	86	41.6	1	4	112	0.01	29.540 
07:25	45.5	45.5	45.5	86	41.6	1	5	68	0.00	29.540 
07:30	45.7	45.7	45.7	86	41.8	1	5	68	0.00	29.533 
07:35	45.7	45.7	45.7	86	41.8	1	4	90	0.00	29.533 
07:40	45.7	45.7	45.7	86	41.8	0	2	90	0.00	29.533 
07:45	45.8	45.8	45.8	86	41.9	0	3	90	0.00	29.532 
07:50	45.8	45.8	45.8	86	41.9	1	3	90	0.00	29.532 
07:55	45.8	45.8	45.8	86	41.9	1	4	90	0.00	29.532 
08:00	45.8	45.8	45.8	86	41.9	0	2	90	0.00	29.528 
08:05	45.8	45.8	45.8	87	42.2	0	3	90	0.00	29.528 
08:10	45.8	45.8	45.8	87	42.2	1	3	90	0.00	29.528 
08:15	45.8	45.8	45.8	87	42.2	0	2	90	0.00	29.530 
08:20	45.8	45.8	45.8	87	42.2	0	1	90	0.00	29.530 
08:25	45.8	45.8	45.8	87	42.2	0	1	90	0.00	29.530 
08:30	45.8	45.8	45.8	87	42.2	0	3	90	0.00	29.534 
08:35	45.8	45.8	45.8	87	42.2	0	4	90	0.00	29.534 
08:40	45.8	45.8	45.8	87	42.2	1	4	90	0.00	29.534 
08:45	46.0	46.0	46.0	86	42.0	0	3	90	0.00	29.535 
08:50	46.1	46.1	46.1	86	42.1	0	3	90	0.00	29.535 
08:55	46.2	46.2	46.2	86	42.2	1	4	90	0.00	29.535 
09:00	46.2	46.2	46.2	86	42.2	1	3	90	0.00	29.538 
09:05	46.2	46.2	46.2	86	42.2	0	2	90	0.00	29.538 
09:10	46.4	46.4	46.4	86	42.4	0	2	90	0.01	29.538 
09:15	46.4	46.4	46.4	86	42.4	0	3	90	0.00	29.541 
09:20	46.5	46.5	46.5	86	42.5	0	3	90	0.00	29.541 
09:25	46.5	46.5	46.5	86	42.5	1	5	90	0.00	29.541 
09:30	46.5	46.5	46.5	87	42.8	1	4	68	0.00	29.540 
09:35	46.5	46.5	46.5	87	42.8	0	2	68	0.00	29.540 
09:40	46.5	46.5	46.5	87	42.8	0	2	68	0.00	29.540 
09:45	46.5	46.5	46.5	87	42.8	1	3	68	0.00	29.539 
09:50	46.5	46.5	46.5	87	42.8	0	3	68	0.00	29.539 
09:55	46.5	46.5	46.5	87	42.8	0	2	68	0.00	29.539 
10:00	46.5	46.5	46.5	87	42.8	0	2	68	0.00	29.539 
10:05	46.7	46.7	46.7	87	43.0	0	2	45	0.00	29.539 
10:10	46.7	46.7	46.7	87	43.0	1	4	45	0.00	29.539 
10:15	46.7	46.7	46.7	87	43.0	0	2	68	0.00	29.539 
10:20	46.8	46.8	46.8	87	43.1	0	3	68	0.00	29.539 
10:25	47.0	47.0	47.0	87	43.3	1	5	315	0.00	29.539 
10:30	47.1	47.1	47.1	86	43.1	1	4	90	0.00	29.539 
10:35	47.4	47.4	47.4	86	43.4	0	2	90	0.00	29.539 
10:40	47.7	47.7	47.7	86	43.7	0	2	90	0.00	29.539 
10:45	48.0	48.0	48.0	86	44.0	1	4	270	0.00	29.536 
10:50	48.3	48.3	48.3	85	44.0	1	5	90	0.00	29.536 
10:55	48.6	48.6	48.6	84	44.0	1	5	68	0.00	29.536 
11:00	48.8	48.8	48.8	83	43.9	1	4	68	0.00	29.536 
11:05	48.8	48.8	48.8	83	43.9	0	2	270	0.00	29.536 
11:10	48.8	48.8	48.8	82	43.6	1	3	68	0.00	29.536 
11:15	48.9	48.9	48.9	81	43.3	1	4	68	0.00	29.535 
11:20	48.9	48.9	48.9	81	43.3	1	4	68	0.00	29.535 
11:25	49.1	49.1	49.1	80	43.2	1	4	90	0.00	29.535 
11:30	49.1	49.1	49.1	80	43.2	1	5	270	0.00	29.536 
11:35	49.2	49.2	49.2	79	43.0	1	4	248	0.00	29.536 
11:40	49.2	49.2	49.2	79	43.0	1	5	45	0.00	29.536 
11:45	49.4	49.4	49.4	79	43.2	2	5	68	0.00	29.536 
11:50	49.4	49.4	49.4	79	43.2	2	6	90	0.00	29.536 
11:55	49.5	49.5	49.5	79	43.3	1	5	270	0.00	29.536 
12:00	49.8	49.8	49.8	80	43.9	1	4	248	0.00	29.537 
12:05	50.2	50.2	50.2	79	43.9	1	4	68	0.00	29.537 
12:10	50.2	50.2	50.2	77	43.3	1	4	270	0.00	29.537 
12:15	50.2	50.2	50.2	77	43.3	1	4	270	0.00	29.539 
12:20	50.1	50.1	50.1	78	43.5	1	6	248	0.01	29.539 
12:25	49.6	49.6	49.6	81	44.0	1	3	248	0.00	29.539 
12:30	49.2	49.2	49.2	82	43.9	0	4	248	0.01	29.544 
12:35	49.1	49.1	49.1	84	44.5	0	2	248	0.00	29.544 
12:40	49.1	49.1	49.1	84	44.5	0	3	248	0.00	29.544 
12:45	49.2	49.2	49.2	85	44.9	0	3	270	0.00	29.540 
12:50	49.5	49.5	49.5	85	45.2	0	3	270	0.00	29.540 
12:55	49.6	49.6	49.6	84	45.0	1	2	90	0.00	29.540 
13:00	49.6	49.6	49.6	83	44.7	1	4	90	0.00	29.537 
13:05	49.8	49.8	49.8	83	44.8	0	1	248	0.00	29.537 
13:10	49.9	49.9	49.9	83	44.9	0	2	248	0.00	29.537 
13:15	49.8	49.8	49.8	83	44.8	0	2	248	0.00	29.536 
13:20	49.5	49.5	49.5	84	44.9	0	1	248	0.00	29.536 
13:25	49.2	49.2	49.2	84	44.6	1	4	248	0.00	29.536 
13:30	49.1	49.1	49.1	84	44.5	1	4	248	0.00	29.537 
13:35	48.9	48.9	48.9	84	44.3	0	1	270	0.00	29.537 
13:40	48.9	48.9	48.9	85	44.6	0	1	270	0.00	29.537 
13:45	49.1	49.1	49.1	85	44.8	0	1	270	0.00	29.535 
13:50	49.2	49.2	49.2	84	44.6	0	1	270	0.00	29.535 
13:55	49.5	49.5	49.5	83	44.6	0	4	270	0.00	29.535 
14:00	49.8	49.8	49.8	81	44.2	1	4	248	0.00	29.528 
14:05	50.1	50.1	50.1	78	43.5	1	3	248	0.00	29.528 
14:10	50.2	50.2	50.2	77	43.3	1	3	248	0.00	29.528 
14:15	50.5	50.5	50.5	76	43.2	1	3	248	0.00	29.527 
14:20	50.7	50.7	50.7	76	43.4	0	3	248	0.00	29.527 
14:25	50.8	50.8	50.8	76	43.5	0	3	248	0.00	29.527 
14:30	50.7	50.7	50.7	76	43.4	1	5	270	0.00	29.523 
14:35	50.7	50.7	50.7	77	43.8	0	3	292	0.00	29.523 
14:40	50.5	50.5	50.5	77	43.6	0	2	270	0.00	29.523 
14:45	50.4	50.4	50.4	78	43.8	0	2	270	0.00	29.530 
14:50	50.2	50.2	50.2	80	44.3	1	3	135	0.01	29.530 
14:55	50.1	50.1	50.1	81	44.5	0	1	135	0.00	29.530 
15:00	50.1	50.1	50.1	81	44.5	1	6	45	0.00	29.532 
15:05	49.8	49.8	49.8	82	44.5	0	6	292	0.00	29.532 
15:10	49.6	49.6	49.6	83	44.7	1	5	45	0.00	29.532 
15:15	49.4	49.4	49.4	82	44.1	1	3	45	0.00	29.536 
15:20	49.2	49.2	49.2	84	44.6	1	4	68	0.01	29.536 
15:25	49.1	49.1	49.1	84	44.5	0	2	68	0.00	29.536 
15:30	48.9	48.9	48.9	85	44.6	0	3	68	0.00	29.537 
15:35	48.8	48.8	48.8	85	44.5	1	4	68	0.00	29.537 
15:40	48.6	48.6	48.6	86	44.6	0	3	248	0.01	29.537 
15:45	48.5	48.5	48.5	87	44.8	1	3	248	0.00	29.542 
15:50	48.3	48.3	48.3	87	44.6	1	4	248	0.01	29.542 
15:55	48.0	48.0	48.0	87	44.3	1	3	248	0.00	29.542 
16:00	47.9	47.9	47.9	88	44.5	0	3	270	0.00	29.549 
16:05	47.7	47.7	47.7	88	44.3	1	5	292	0.00	29.549 
16:10	47.7	47.7	47.7	89	44.6	0	1	248	0.01	29.549 
16:15	47.7	47.7	47.7	89	44.6	0	1	248	0.00	29.552 
16:20	47.6	47.6	47.6	89	44.5	0	2	248	0.00	29.552 
16:25	47.3	47.3	47.3	89	44.2	0	2	45	0.01	29.552 
16:30	47.1	47.1	47.1	89	44.0	1	7	248	0.00	29.556 
16:35	47.0	47.0	47.0	90	44.2	0	2	248	0.00	29.556 
16:40	47.0	47.0	47.0	90	44.2	0	3	270	0.01	29.556 
16:45	47.0	47.0	47.0	90	44.2	1	5	68	0.00	29.557 
16:50	46.8	46.8	46.8	90	44.0	0	2	315	0.00	29.557 
16:55	46.8	46.8	46.8	90	44.0	1	4	315	0.00	29.557 
17:00	46.8	46.8	46.8	91	44.3	0	4	315	0.01	29.559 
17:05	46.5	46.5	46.5	90	43.7	1	4	248	0.00	29.559 
17:10	46.4	46.4	46.4	91	43.9	1	3	248	0.00	29.559 
17:15	46.2	46.2	46.2	91	43.7	0	2	248	0.00	29.562 
17:20	46.1	46.1	46.1	91	43.6	1	4	248	0.00	29.562 
17:25	46.1	46.1	46.1	91	43.6	0	2	248	0.00	29.562 
17:30	46.1	46.1	46.1	91	43.6	0	1	248	0.01	29.567 
17:35	46.2	46.2	46.2	91	43.7	0	0	---	0.00	29.567 
17:40	46.2	46.2	46.2	91	43.7	0	1	248	0.00	29.567 
17:45	46.2	46.2	46.2	92	44.0	0	2	248	0.01	29.571 
17:50	46.2	46.2	46.2	92	44.0	0	1	248	0.00	29.571 
17:55	46.2	46.2	46.2	92	44.0	0	3	112	0.00	29.571 
18:00	46.1	46.1	46.1	92	43.9	0	2	248	0.01	29.572 
18:05	46.0	46.0	46.0	92	43.8	0	2	248	0.00	29.572 
18:10	46.1	46.1	46.1	92	43.9	0	1	248	0.00	29.572 
18:15	46.1	46.1	46.1	92	43.9	0	1	248	0.01	29.573 
18:20	46.1	46.1	46.1	92	43.9	0	1	248	0.00	29.573 
18:25	46.1	46.1	46.1	92	43.9	0	1	248	0.00	29.573 
18:30	46.1	46.1	46.1	92	43.9	0	2	248	0.00	29.575 
18:35	46.0	46.0	46.0	92	43.8	0	1	248	0.00	29.575 
18:40	46.0	46.0	46.0	93	44.1	0	0	---	0.00	29.575 
18:45	46.0	46.0	46.0	93	44.1	0	2	248	0.00	29.579 
18:50	46.0	46.0	46.0	93	44.1	0	2	248	0.00	29.579 
18:55	46.0	46.0	46.0	93	44.1	0	1	248	0.00	29.579 
19:00	46.0	46.0	46.0	93	44.1	0	1	248	0.00	29.583 
19:05	46.0	46.0	46.0	93	44.1	0	2	248	0.01	29.583 
19:10	46.0	46.0	46.0	93	44.1	0	1	248	0.01	29.583 
19:15	46.0	46.0	46.0	93	44.1	0	1	248	0.01	29.583 
19:20	46.0	46.0	46.0	93	44.1	0	1	248	0.00	29.583 
19:25	46.0	46.0	46.0	93	44.1	0	2	248	0.00	29.583 
19:30	46.0	46.0	46.0	93	44.1	0	2	248	0.00	29.585 
19:35	46.0	46.0	46.0	94	44.4	0	1	248	0.00	29.585 
19:40	46.0	46.0	46.0	94	44.4	0	1	248	0.00	29.585 
19:45	46.0	46.0	46.0	94	44.4	0	1	248	0.00	29.587 
19:50	46.0	46.0	46.0	94	44.4	0	0	---	0.00	29.587 
19:55	46.0	46.0	46.0	94	44.4	0	1	248	0.00	29.587 
20:00	46.0	46.0	46.0	94	44.4	0	1	248	0.00	29.587 
20:05	46.1	46.1	46.1	94	44.5	0	3	248	0.00	29.587 
20:10	46.1	46.1	46.1	94	44.5	0	3	270	0.00	29.587 
20:15	46.1	46.1	46.1	94	44.5	0	4	248	0.00	29.585 
20:20	46.2	46.2	46.2	94	44.6	0	4	248	0.00	29.585 
20:25	46.1	46.1	46.1	94	44.5	0	2	248	0.00	29.585 
20:30	46.1	46.1	46.1	94	44.5	0	2	248	0.00	29.587 
20:35	46.1	46.1	46.1	94	44.5	0	2	248	0.00	29.587 
20:40	46.1	46.1	46.1	94	44.5	0	1	248	0.00	29.587 
20:45	46.1	46.1	46.1	94	44.5	0	1	248	0.00	29.586 
20:50	46.1	46.1	46.1	94	44.5	0	4	248	0.00	29.586 
20:55	46.0	46.0	46.0	94	44.4	0	3	248	0.00	29.586 
21:00	45.8	45.8	45.8	94	44.2	0	2	248	0.00	29.587 
21:05	45.8	45.8	45.8	94	44.2	0	3	248	0.00	29.587 
21:10	45.7	45.7	45.7	94	44.1	0	2	248	0.00	29.587 
21:15	45.7	45.7	45.7	94	44.1	0	1	248	0.00	29.588 
21:20	45.7	45.7	45.7	94	44.1	0	1	248	0.00	29.588 
21:25	45.7	45.7	45.7	94	44.1	0	1	248	0.00	29.588 
21:30	45.7	45.7	45.7	94	44.1	0	1	248	0.00	29.593 
21:35	45.7	45.7	45.7	94	44.1	0	1	248	0.00	29.593 
21:40	45.8	45.8	45.8	94	44.2	0	3	248	0.00	29.593 
21:45	45.8	45.8	45.8	94	44.2	0	2	248	0.00	29.599 
21:50	46.0	46.0	46.0	94	44.4	0	2	248	0.00	29.599 
21:55	46.0	46.0	46.0	94	44.4	0	1	248	0.00	29.599 
22:00	46.0	46.0	46.0	94	44.4	0	2	248	0.00	29.602 
22:05	46.0	46.0	46.0	94	44.4	1	3	248	0.00	29.602 
22:10	46.0	46.0	46.0	94	44.4	1	4	248	0.00	29.602 
22:15	46.0	46.0	46.0	94	44.4	0	2	248	0.00	29.601 
22:20	46.0	46.0	46.0	94	44.4	0	2	248	0.00	29.601 
22:25	46.0	46.0	46.0	94	44.4	0	2	248	0.00	29.601 
22:30	46.0	46.0	46.0	94	44.4	0	1	248	0.00	29.603 
22:35	46.0	46.0	46.0	94	44.4	0	5	248	0.00	29.603 
22:40	46.0	46.0	46.0	94	44.4	1	3	248	0.00	29.603 
22:45	46.0	46.0	46.0	94	44.4	1	4	248	0.00	29.604 
22:50	46.0	46.0	46.0	94	44.4	1	4	248	0.00	29.604 
22:55	46.0	46.0	46.0	93	44.1	1	3	248	0.00	29.604 
23:00	46.0	46.0	46.0	93	44.1	1	3	248	0.00	29.608 
23:05	46.0	46.0	46.0	93	44.1	0	3	248	0.00	29.608 
23:10	46.0	46.0	46.0	93	44.1	1	3	248	0.00	29.608 
23:15	45.8	45.8	45.8	93	43.9	1	3	248	0.00	29.613 
23:20	45.8	45.8	45.8	93	43.9	0	2	248	0.00	29.613 
23:25	45.8	45.8	45.8	92	43.6	1	5	248	0.00	29.613 
23:30	45.8	45.8	45.8	92	43.6	1	4	248	0.00	29.615 
23:35	45.8	45.8	45.8	92	43.6	0	3	248	0.00	29.615 
23:40	45.8	45.8	45.8	92	43.6	1	3	248	0.00	29.615 
23:45	45.8	45.8	45.8	92	43.6	1	3	248	0.00	29.616 
23:50	45.8	45.8	45.8	92	43.6	1	4	248	0.00	29.616 
23:55	45.7	45.7	45.7	92	43.5	1	4	270	0.00	29.616 

CoCoRaHS
IN-AL-39
A2 Web Hosting
Creative Commons License
GoDaddy
search engine by freefind advanced

loaded 2018-11-14 04:04:11 • last modified 2010-11-18 10:43:29
Privacy PolicyDisclaimer
• wx.awcolley.com is powered by PmWiki v.2002016 •
• all content (unless otherwise noted) © 2018 A W Colley